sensor_id;sensor_type;location;lat;lon;timestamp;pressure;altitude;pressure_sealevel;temperature;humidity
42411;BME280;28056;51.112;0.984;2023-03-16T00:01:57;100401.76;;;10.00;60.33
42411;BME280;28056;51.112;0.984;2023-03-16T00:04:25;100401.76;;;9.65;60.50
42411;BME280;28056;51.112;0.984;2023-03-16T00:06:52;100397.08;;;9.71;61.26
42411;BME280;28056;51.112;0.984;2023-03-16T00:09:19;100395.15;;;9.88;61.07
42411;BME280;28056;51.112;0.984;2023-03-16T00:11:47;100398.03;;;9.56;61.13
42411;BME280;28056;51.112;0.984;2023-03-16T00:14:14;100398.27;;;9.80;60.94
42411;BME280;28056;51.112;0.984;2023-03-16T00:16:41;100397.64;;;9.69;61.14
42411;BME280;28056;51.112;0.984;2023-03-16T00:19:08;100393.62;;;9.68;60.62
42411;BME280;28056;51.112;0.984;2023-03-16T00:21:35;100386.11;;;9.76;61.04
42411;BME280;28056;51.112;0.984;2023-03-16T00:24:02;100382.12;;;9.69;62.16
42411;BME280;28056;51.112;0.984;2023-03-16T00:26:30;100381.69;;;9.46;61.28
42411;BME280;28056;51.112;0.984;2023-03-16T00:28:58;100372.29;;;9.75;60.70
42411;BME280;28056;51.112;0.984;2023-03-16T00:31:25;100371.95;;;9.94;60.80
42411;BME280;28056;51.112;0.984;2023-03-16T00:33:52;100368.56;;;10.04;60.54
42411;BME280;28056;51.112;0.984;2023-03-16T00:36:19;100361.87;;;10.10;60.49
42411;BME280;28056;51.112;0.984;2023-03-16T00:38:46;100360.81;;;9.92;60.52
42411;BME280;28056;51.112;0.984;2023-03-16T00:41:14;100359.70;;;9.96;60.61
42411;BME280;28056;51.112;0.984;2023-03-16T00:43:42;100356.29;;;9.86;60.96
42411;BME280;28056;51.112;0.984;2023-03-16T00:46:12;100357.02;;;9.65;60.45
42411;BME280;28056;51.112;0.984;2023-03-16T00:48:41;100354.50;;;10.06;61.33
42411;BME280;28056;51.112;0.984;2023-03-16T00:51:11;100346.92;;;9.60;61.03
42411;BME280;28056;51.112;0.984;2023-03-16T00:53:40;100341.04;;;9.79;61.10
42411;BME280;28056;51.112;0.984;2023-03-16T00:56:09;100331.75;;;9.65;60.67
42411;BME280;28056;51.112;0.984;2023-03-16T00:58:38;100330.31;;;9.62;60.70
42411;BME280;28056;51.112;0.984;2023-03-16T01:04:48;100321.68;;;10.33;58.97
42411;BME280;28056;51.112;0.984;2023-03-16T01:07:15;100320.80;;;10.45;58.55
42411;BME280;28056;51.112;0.984;2023-03-16T01:09:43;100318.59;;;10.47;58.18
42411;BME280;28056;51.112;0.984;2023-03-16T01:12:12;100313.06;;;10.70;58.37
42411;BME280;28056;51.112;0.984;2023-03-16T01:14:41;100310.61;;;10.83;58.30
42411;BME280;28056;51.112;0.984;2023-03-16T01:17:08;100309.45;;;10.40;58.31
42411;BME280;28056;51.112;0.984;2023-03-16T01:19:36;100307.21;;;10.81;58.07
42411;BME280;28056;51.112;0.984;2023-03-16T01:22:05;100302.74;;;10.60;58.75
42411;BME280;28056;51.112;0.984;2023-03-16T01:24:33;100299.43;;;10.56;57.88
42411;BME280;28056;51.112;0.984;2023-03-16T01:27:01;100292.15;;;10.65;58.12
42411;BME280;28056;51.112;0.984;2023-03-16T01:29:29;100285.02;;;10.61;57.71
42411;BME280;28056;51.112;0.984;2023-03-16T01:31:56;100279.70;;;10.33;58.79
42411;BME280;28056;51.112;0.984;2023-03-16T01:34:23;100285.27;;;10.27;59.59
42411;BME280;28056;51.112;0.984;2023-03-16T01:36:51;100275.89;;;10.27;58.75
42411;BME280;28056;51.112;0.984;2023-03-16T01:39:20;100272.28;;;10.32;59.01
42411;BME280;28056;51.112;0.984;2023-03-16T01:41:47;100274.10;;;10.35;59.08
42411;BME280;28056;51.112;0.984;2023-03-16T01:44:15;100260.30;;;10.34;58.60
42411;BME280;28056;51.112;0.984;2023-03-16T01:46:43;100259.87;;;10.18;58.73
42411;BME280;28056;51.112;0.984;2023-03-16T01:49:12;100261.28;;;9.89;58.76
42411;BME280;28056;51.112;0.984;2023-03-16T01:51:43;100246.79;;;9.62;59.36
42411;BME280;28056;51.112;0.984;2023-03-16T01:54:20;100237.87;;;9.91;58.78
42411;BME280;28056;51.112;0.984;2023-03-16T01:56:55;100236.06;;;10.00;58.88
42411;BME280;28056;51.112;0.984;2023-03-16T01:59:28;100228.98;;;10.52;58.32
42411;BME280;28056;51.112;0.984;2023-03-16T02:01:57;100232.96;;;10.35;57.77
42411;BME280;28056;51.112;0.984;2023-03-16T02:04:34;100236.92;;;10.55;57.30
42411;BME280;28056;51.112;0.984;2023-03-16T02:07:04;100228.39;;;10.56;56.58
42411;BME280;28056;51.112;0.984;2023-03-16T02:09:34;100219.02;;;10.81;57.20
42411;BME280;28056;51.112;0.984;2023-03-16T02:12:10;100216.71;;;10.93;57.15
42411;BME280;28056;51.112;0.984;2023-03-16T02:14:37;100211.89;;;10.84;56.89
42411;BME280;28056;51.112;0.984;2023-03-16T02:17:04;100203.11;;;10.82;56.57
42411;BME280;28056;51.112;0.984;2023-03-16T02:19:40;100196.58;;;10.87;55.84
42411;BME280;28056;51.112;0.984;2023-03-16T02:22:09;100196.24;;;10.71;56.14
42411;BME280;28056;51.112;0.984;2023-03-16T02:24:37;100193.04;;;10.81;56.20
42411;BME280;28056;51.112;0.984;2023-03-16T02:27:07;100186.88;;;10.77;55.71
42411;BME280;28056;51.112;0.984;2023-03-16T02:29:50;100185.57;;;10.85;55.72
42411;BME280;28056;51.112;0.984;2023-03-16T02:32:19;100189.97;;;10.07;56.06
42411;BME280;28056;51.112;0.984;2023-03-16T02:34:47;100189.85;;;10.02;55.97
42411;BME280;28056;51.112;0.984;2023-03-16T02:37:14;100188.27;;;10.33;56.73
42411;BME280;28056;51.112;0.984;2023-03-16T02:39:43;100188.42;;;9.68;57.49
42411;BME280;28056;51.112;0.984;2023-03-16T02:42:12;100182.14;;;9.54;59.41
42411;BME280;28056;51.112;0.984;2023-03-16T02:44:43;100179.91;;;9.41;60.17
42411;BME280;28056;51.112;0.984;2023-03-16T02:47:21;100172.98;;;9.65;60.14
42411;BME280;28056;51.112;0.984;2023-03-16T02:49:49;100169.26;;;9.44;61.00
42411;BME280;28056;51.112;0.984;2023-03-16T02:52:17;100170.05;;;9.78;60.47
42411;BME280;28056;51.112;0.984;2023-03-16T02:54:45;100168.99;;;9.88;59.89
42411;BME280;28056;51.112;0.984;2023-03-16T02:57:12;100163.87;;;9.49;61.02
42411;BME280;28056;51.112;0.984;2023-03-16T02:59:39;100157.19;;;10.06;59.56
42411;BME280;28056;51.112;0.984;2023-03-16T03:02:06;100158.62;;;10.06;58.86
42411;BME280;28056;51.112;0.984;2023-03-16T03:04:34;100157.15;;;10.49;58.51
42411;BME280;28056;51.112;0.984;2023-03-16T03:07:01;100148.07;;;10.39;58.40
42411;BME280;28056;51.112;0.984;2023-03-16T03:09:28;100142.60;;;10.65;58.00
42411;BME280;28056;51.112;0.984;2023-03-16T03:11:55;100143.11;;;10.68;57.43
42411;BME280;28056;51.112;0.984;2023-03-16T03:14:23;100144.22;;;10.51;58.01
42411;BME280;28056;51.112;0.984;2023-03-16T03:16:51;100140.65;;;10.51;58.79
42411;BME280;28056;51.112;0.984;2023-03-16T03:19:18;100136.19;;;10.36;58.80
42411;BME280;28056;51.112;0.984;2023-03-16T03:21:45;100130.44;;;10.87;57.82
42411;BME280;28056;51.112;0.984;2023-03-16T03:24:13;100127.57;;;10.68;57.16
42411;BME280;28056;51.112;0.984;2023-03-16T03:26:40;100125.70;;;10.71;57.20
42411;BME280;28056;51.112;0.984;2023-03-16T03:29:07;100116.82;;;11.04;57.09
42411;BME280;28056;51.112;0.984;2023-03-16T03:31:34;100101.21;;;10.67;57.03
42411;BME280;28056;51.112;0.984;2023-03-16T03:34:01;100106.36;;;10.73;56.37
42411;BME280;28056;51.112;0.984;2023-03-16T03:36:28;100118.37;;;10.96;56.74
42411;BME280;28056;51.112;0.984;2023-03-16T03:38:55;100124.28;;;10.55;55.84
42411;BME280;28056;51.112;0.984;2023-03-16T03:41:23;100123.12;;;10.91;55.89
42411;BME280;28056;51.112;0.984;2023-03-16T03:43:52;100120.36;;;10.84;55.86
42411;BME280;28056;51.112;0.984;2023-03-16T03:46:19;100108.87;;;11.23;55.90
42411;BME280;28056;51.112;0.984;2023-03-16T03:48:46;100107.24;;;10.96;56.22
42411;BME280;28056;51.112;0.984;2023-03-16T03:51:14;100108.33;;;11.19;55.87
42411;BME280;28056;51.112;0.984;2023-03-16T03:53:41;100098.33;;;10.80;55.42
42411;BME280;28056;51.112;0.984;2023-03-16T03:56:08;100095.40;;;11.16;55.76
42411;BME280;28056;51.112;0.984;2023-03-16T03:58:35;100107.19;;;11.09;55.49
42411;BME280;28056;51.112;0.984;2023-03-16T04:01:03;100105.27;;;10.59;55.76
42411;BME280;28056;51.112;0.984;2023-03-16T04:03:30;100098.32;;;10.79;55.63
42411;BME280;28056;51.112;0.984;2023-03-16T04:05:57;100091.06;;;10.82;55.44
42411;BME280;28056;51.112;0.984;2023-03-16T04:08:25;100092.10;;;10.93;55.78
42411;BME280;28056;51.112;0.984;2023-03-16T04:10:52;100090.88;;;11.13;56.06
42411;BME280;28056;51.112;0.984;2023-03-16T04:13:20;100091.45;;;10.67;56.06
42411;BME280;28056;51.112;0.984;2023-03-16T04:15:48;100088.42;;;10.73;56.31
42411;BME280;28056;51.112;0.984;2023-03-16T04:18:15;100080.85;;;10.81;55.98
42411;BME280;28056;51.112;0.984;2023-03-16T04:20:43;100083.16;;;11.00;55.98
42411;BME280;28056;51.112;0.984;2023-03-16T04:23:10;100081.02;;;10.17;57.34
42411;BME280;28056;51.112;0.984;2023-03-16T04:25:38;100084.17;;;10.33;57.95
42411;BME280;28056;51.112;0.984;2023-03-16T04:28:06;100084.87;;;10.56;58.00
42411;BME280;28056;51.112;0.984;2023-03-16T04:30:33;100082.37;;;10.97;57.83
42411;BME280;28056;51.112;0.984;2023-03-16T04:33:00;100080.92;;;10.72;57.53
42411;BME280;28056;51.112;0.984;2023-03-16T04:35:28;100081.94;;;10.56;56.97
42411;BME280;28056;51.112;0.984;2023-03-16T04:37:56;100083.59;;;10.54;56.84
42411;BME280;28056;51.112;0.984;2023-03-16T04:40:24;100088.84;;;10.81;57.33
42411;BME280;28056;51.112;0.984;2023-03-16T04:42:51;100079.83;;;10.52;56.83
42411;BME280;28056;51.112;0.984;2023-03-16T04:45:18;100074.62;;;10.57;56.85
42411;BME280;28056;51.112;0.984;2023-03-16T04:47:46;100068.41;;;10.54;56.61
42411;BME280;28056;51.112;0.984;2023-03-16T04:50:13;100070.40;;;10.50;57.33
42411;BME280;28056;51.112;0.984;2023-03-16T04:52:41;100072.12;;;10.65;57.81
42411;BME280;28056;51.112;0.984;2023-03-16T04:55:09;100070.71;;;10.63;57.41
42411;BME280;28056;51.112;0.984;2023-03-16T04:57:36;100072.88;;;10.71;58.24
42411;BME280;28056;51.112;0.984;2023-03-16T05:00:05;100068.20;;;10.53;57.52
42411;BME280;28056;51.112;0.984;2023-03-16T05:02:32;100069.30;;;10.67;57.96
42411;BME280;28056;51.112;0.984;2023-03-16T05:04:59;100071.88;;;10.64;58.41
42411;BME280;28056;51.112;0.984;2023-03-16T05:07:27;100077.08;;;10.76;58.67
42411;BME280;28056;51.112;0.984;2023-03-16T05:09:54;100075.06;;;10.61;57.77
42411;BME280;28056;51.112;0.984;2023-03-16T05:12:21;100067.60;;;10.64;57.45
42411;BME280;28056;51.112;0.984;2023-03-16T05:14:48;100071.96;;;10.68;57.93
42411;BME280;28056;51.112;0.984;2023-03-16T05:17:16;100077.73;;;10.86;57.40
42411;BME280;28056;51.112;0.984;2023-03-16T05:19:43;100075.17;;;10.97;57.60
42411;BME280;28056;51.112;0.984;2023-03-16T05:22:10;100074.50;;;11.02;58.26
42411;BME280;28056;51.112;0.984;2023-03-16T05:24:38;100074.75;;;10.63;57.70
42411;BME280;28056;51.112;0.984;2023-03-16T05:27:05;100070.77;;;11.00;58.43
42411;BME280;28056;51.112;0.984;2023-03-16T05:29:33;100065.78;;;11.00;57.62
42411;BME280;28056;51.112;0.984;2023-03-16T05:32:00;100068.14;;;11.00;57.37
42411;BME280;28056;51.112;0.984;2023-03-16T05:34:28;100057.68;;;10.98;57.56
42411;BME280;28056;51.112;0.984;2023-03-16T05:36:55;100060.37;;;10.15;60.22
42411;BME280;28056;51.112;0.984;2023-03-16T05:39:22;100062.29;;;10.03;59.84
42411;BME280;28056;51.112;0.984;2023-03-16T05:41:49;100055.48;;;10.26;59.30
42411;BME280;28056;51.112;0.984;2023-03-16T05:44:17;100056.87;;;10.24;59.76
42411;BME280;28056;51.112;0.984;2023-03-16T05:46:44;100062.98;;;10.28;60.78
42411;BME280;28056;51.112;0.984;2023-03-16T05:49:11;100062.33;;;10.17;63.76
42411;BME280;28056;51.112;0.984;2023-03-16T05:51:38;100058.08;;;10.20;62.21
42411;BME280;28056;51.112;0.984;2023-03-16T05:54:05;100050.02;;;9.99;61.98
42411;BME280;28056;51.112;0.984;2023-03-16T05:56:33;100062.33;;;7.43;70.73
42411;BME280;28056;51.112;0.984;2023-03-16T05:59:00;100066.18;;;6.91;74.27
42411;BME280;28056;51.112;0.984;2023-03-16T06:01:28;100072.24;;;6.84;76.44
42411;BME280;28056;51.112;0.984;2023-03-16T06:03:55;100069.29;;;5.81;79.70
42411;BME280;28056;51.112;0.984;2023-03-16T06:06:23;100071.72;;;5.90;81.49
42411;BME280;28056;51.112;0.984;2023-03-16T06:08:50;100070.38;;;6.83;81.43
42411;BME280;28056;51.112;0.984;2023-03-16T06:11:18;100071.82;;;6.58;82.02
42411;BME280;28056;51.112;0.984;2023-03-16T06:13:45;100064.46;;;6.37;82.98
42411;BME280;28056;51.112;0.984;2023-03-16T06:16:12;100065.42;;;5.62;85.38
42411;BME280;28056;51.112;0.984;2023-03-16T06:18:41;100065.79;;;6.19;84.41
42411;BME280;28056;51.112;0.984;2023-03-16T06:21:09;100057.18;;;6.00;85.83
42411;BME280;28056;51.112;0.984;2023-03-16T06:23:36;100050.83;;;6.25;86.77
42411;BME280;28056;51.112;0.984;2023-03-16T06:26:03;100051.34;;;6.09;85.45
42411;BME280;28056;51.112;0.984;2023-03-16T06:28:31;100055.04;;;6.58;86.33
42411;BME280;28056;51.112;0.984;2023-03-16T06:30:58;100050.12;;;6.37;87.29
42411;BME280;28056;51.112;0.984;2023-03-16T06:33:26;100046.45;;;6.48;87.88
42411;BME280;28056;51.112;0.984;2023-03-16T06:35:53;100038.41;;;6.01;88.87
42411;BME280;28056;51.112;0.984;2023-03-16T06:38:21;100041.75;;;6.47;87.55
42411;BME280;28056;51.112;0.984;2023-03-16T06:40:51;100042.51;;;6.00;90.26
42411;BME280;28056;51.112;0.984;2023-03-16T06:43:19;100034.30;;;6.25;88.59
42411;BME280;28056;51.112;0.984;2023-03-16T06:45:48;100033.23;;;6.71;88.48
42411;BME280;28056;51.112;0.984;2023-03-16T06:48:15;100038.80;;;6.21;88.15
42411;BME280;28056;51.112;0.984;2023-03-16T06:50:44;100042.35;;;6.95;87.61
42411;BME280;28056;51.112;0.984;2023-03-16T06:53:11;100037.34;;;6.76;86.73
42411;BME280;28056;51.112;0.984;2023-03-16T06:55:38;100033.26;;;6.79;85.32
42411;BME280;28056;51.112;0.984;2023-03-16T06:58:05;100037.13;;;6.67;87.11
42411;BME280;28056;51.112;0.984;2023-03-16T07:00:32;100034.88;;;7.30;83.95
42411;BME280;28056;51.112;0.984;2023-03-16T07:02:59;100033.90;;;7.09;82.60
42411;BME280;28056;51.112;0.984;2023-03-16T07:05:26;100034.87;;;7.51;83.04
42411;BME280;28056;51.112;0.984;2023-03-16T07:07:53;100041.87;;;7.21;82.27
42411;BME280;28056;51.112;0.984;2023-03-16T07:10:21;100049.55;;;6.95;84.62
42411;BME280;28056;51.112;0.984;2023-03-16T07:12:48;100052.93;;;6.14;86.03
42411;BME280;28056;51.112;0.984;2023-03-16T07:15:15;100052.42;;;6.66;85.02
42411;BME280;28056;51.112;0.984;2023-03-16T07:17:43;100054.19;;;6.82;83.80
42411;BME280;28056;51.112;0.984;2023-03-16T07:20:10;100051.85;;;6.65;84.40
42411;BME280;28056;51.112;0.984;2023-03-16T07:22:38;100048.09;;;7.18;83.53
42411;BME280;28056;51.112;0.984;2023-03-16T07:25:07;100051.99;;;7.04;83.29
42411;BME280;28056;51.112;0.984;2023-03-16T07:27:35;100050.75;;;7.08;83.42
42411;BME280;28056;51.112;0.984;2023-03-16T07:30:02;100051.96;;;6.72;84.03
42411;BME280;28056;51.112;0.984;2023-03-16T07:32:30;100053.35;;;6.87;83.46
42411;BME280;28056;51.112;0.984;2023-03-16T07:34:57;100053.66;;;7.27;83.43
42411;BME280;28056;51.112;0.984;2023-03-16T07:37:25;100054.48;;;7.41;81.83
42411;BME280;28056;51.112;0.984;2023-03-16T07:39:53;100061.38;;;6.97;84.51
42411;BME280;28056;51.112;0.984;2023-03-16T07:42:20;100059.26;;;7.81;81.12
42411;BME280;28056;51.112;0.984;2023-03-16T07:44:47;100066.20;;;7.26;82.66
42411;BME280;28056;51.112;0.984;2023-03-16T07:47:15;100059.98;;;7.24;83.36
42411;BME280;28056;51.112;0.984;2023-03-16T07:49:43;100055.45;;;7.28;83.56
42411;BME280;28056;51.112;0.984;2023-03-16T07:52:11;100063.87;;;7.36;83.94
42411;BME280;28056;51.112;0.984;2023-03-16T07:54:39;100061.08;;;7.90;81.65
42411;BME280;28056;51.112;0.984;2023-03-16T07:57:06;100071.21;;;7.47;82.31
42411;BME280;28056;51.112;0.984;2023-03-16T07:59:34;100068.19;;;7.28;82.24
42411;BME280;28056;51.112;0.984;2023-03-16T08:02:02;100069.71;;;6.53;87.08
42411;BME280;28056;51.112;0.984;2023-03-16T08:04:29;100064.57;;;6.95;88.23
42411;BME280;28056;51.112;0.984;2023-03-16T08:06:57;100060.93;;;6.54;90.08
42411;BME280;28056;51.112;0.984;2023-03-16T08:09:24;100060.41;;;6.24;91.04
42411;BME280;28056;51.112;0.984;2023-03-16T08:11:51;100046.97;;;7.04;91.49
42411;BME280;28056;51.112;0.984;2023-03-16T08:14:18;100043.48;;;6.38;93.37
42411;BME280;28056;51.112;0.984;2023-03-16T08:16:45;100050.64;;;6.64;93.06
42411;BME280;28056;51.112;0.984;2023-03-16T08:19:12;100053.89;;;6.74;93.23
42411;BME280;28056;51.112;0.984;2023-03-16T08:21:40;100050.81;;;6.60;94.13
42411;BME280;28056;51.112;0.984;2023-03-16T08:24:08;100043.39;;;6.85;93.53
42411;BME280;28056;51.112;0.984;2023-03-16T08:26:34;100046.08;;;6.48;93.47
42411;BME280;28056;51.112;0.984;2023-03-16T08:29:02;100041.39;;;6.62;91.25
42411;BME280;28056;51.112;0.984;2023-03-16T08:31:29;100032.85;;;6.74;90.77
42411;BME280;28056;51.112;0.984;2023-03-16T08:33:57;100034.23;;;6.69;91.32
42411;BME280;28056;51.112;0.984;2023-03-16T08:36:24;100033.83;;;7.00;89.89
42411;BME280;28056;51.112;0.984;2023-03-16T08:38:51;100031.02;;;6.58;90.28
42411;BME280;28056;51.112;0.984;2023-03-16T08:41:19;100038.10;;;6.54;92.20
42411;BME280;28056;51.112;0.984;2023-03-16T08:43:46;100038.15;;;6.76;89.27
42411;BME280;28056;51.112;0.984;2023-03-16T08:46:15;100034.43;;;6.46;89.59
42411;BME280;28056;51.112;0.984;2023-03-16T08:48:43;100031.67;;;7.07;88.97
42411;BME280;28056;51.112;0.984;2023-03-16T08:51:11;100033.26;;;6.83;88.63
42411;BME280;28056;51.112;0.984;2023-03-16T08:53:38;100029.62;;;7.22;86.33
42411;BME280;28056;51.112;0.984;2023-03-16T08:56:06;100031.61;;;7.17;87.83
42411;BME280;28056;51.112;0.984;2023-03-16T08:58:35;100038.35;;;6.88;87.89
42411;BME280;28056;51.112;0.984;2023-03-16T09:01:04;100050.40;;;6.62;88.01
42411;BME280;28056;51.112;0.984;2023-03-16T09:03:32;100047.34;;;7.02;87.53
42411;BME280;28056;51.112;0.984;2023-03-16T09:06:02;100042.91;;;7.12;86.27
42411;BME280;28056;51.112;0.984;2023-03-16T09:08:30;100033.26;;;7.57;83.68
42411;BME280;28056;51.112;0.984;2023-03-16T09:10:59;100041.48;;;6.87;85.57
42411;BME280;28056;51.112;0.984;2023-03-16T09:13:27;100041.27;;;7.22;84.18
42411;BME280;28056;51.112;0.984;2023-03-16T09:15:55;100037.53;;;7.27;83.76
42411;BME280;28056;51.112;0.984;2023-03-16T09:18:23;100048.56;;;7.03;84.62
42411;BME280;28056;51.112;0.984;2023-03-16T09:20:50;100050.19;;;7.99;83.30
42411;BME280;28056;51.112;0.984;2023-03-16T09:23:19;100042.88;;;7.55;82.19
42411;BME280;28056;51.112;0.984;2023-03-16T09:25:46;100042.81;;;7.71;80.89
42411;BME280;28056;51.112;0.984;2023-03-16T09:28:13;100047.42;;;7.38;81.26
42411;BME280;28056;51.112;0.984;2023-03-16T09:30:40;100057.14;;;7.88;80.38
42411;BME280;28056;51.112;0.984;2023-03-16T09:33:07;100047.08;;;7.54;81.17
42411;BME280;28056;51.112;0.984;2023-03-16T09:35:35;100040.21;;;7.30;81.55
42411;BME280;28056;51.112;0.984;2023-03-16T09:38:02;100027.47;;;7.41;80.41
42411;BME280;28056;51.112;0.984;2023-03-16T09:40:31;100011.42;;;7.90;79.28
42411;BME280;28056;51.112;0.984;2023-03-16T09:43:09;100009.75;;;7.20;79.92
42411;BME280;28056;51.112;0.984;2023-03-16T09:45:48;99997.63;;;7.26;80.86
42411;BME280;28056;51.112;0.984;2023-03-16T09:48:19;100003.41;;;6.82;82.57
42411;BME280;28056;51.112;0.984;2023-03-16T09:50:48;99996.53;;;7.43;80.85
42411;BME280;28056;51.112;0.984;2023-03-16T09:53:21;99998.52;;;7.58;81.72
42411;BME280;28056;51.112;0.984;2023-03-16T09:55:54;99990.99;;;7.29;81.74
42411;BME280;28056;51.112;0.984;2023-03-16T09:58:24;99991.03;;;7.76;80.29
42411;BME280;28056;51.112;0.984;2023-03-16T10:00:58;100004.25;;;7.59;80.33
42411;BME280;28056;51.112;0.984;2023-03-16T10:03:35;99994.88;;;8.42;78.45
42411;BME280;28056;51.112;0.984;2023-03-16T10:06:11;99984.74;;;8.71;76.40
42411;BME280;28056;51.112;0.984;2023-03-16T10:08:40;99991.42;;;8.74;75.58
42411;BME280;28056;51.112;0.984;2023-03-16T10:11:21;99996.85;;;9.01;74.34
42411;BME280;28056;51.112;0.984;2023-03-16T10:13:54;99990.26;;;9.17;73.92
42411;BME280;28056;51.112;0.984;2023-03-16T10:16:28;99992.60;;;8.89;72.61
42411;BME280;28056;51.112;0.984;2023-03-16T10:19:01;99987.47;;;9.46;73.65
42411;BME280;28056;51.112;0.984;2023-03-16T10:21:32;99987.68;;;9.74;73.48
42411;BME280;28056;51.112;0.984;2023-03-16T10:24:15;99983.17;;;10.41;71.28
42411;BME280;28056;51.112;0.984;2023-03-16T10:26:52;99984.03;;;10.05;68.19
42411;BME280;28056;51.112;0.984;2023-03-16T10:29:21;99980.38;;;10.32;67.49
42411;BME280;28056;51.112;0.984;2023-03-16T10:31:49;99980.81;;;9.51;71.32
42411;BME280;28056;51.112;0.984;2023-03-16T10:34:16;99976.55;;;9.78;70.58
42411;BME280;28056;51.112;0.984;2023-03-16T10:36:44;99968.85;;;10.60;69.05
42411;BME280;28056;51.112;0.984;2023-03-16T10:39:13;99974.52;;;10.72;66.25
42411;BME280;28056;51.112;0.984;2023-03-16T10:41:42;99967.19;;;10.33;68.91
42411;BME280;28056;51.112;0.984;2023-03-16T10:44:12;99973.28;;;10.03;67.95
42411;BME280;28056;51.112;0.984;2023-03-16T10:46:41;99968.33;;;10.22;67.01
42411;BME280;28056;51.112;0.984;2023-03-16T10:49:23;99968.23;;;9.35;69.69
42411;BME280;28056;51.112;0.984;2023-03-16T10:51:52;99965.97;;;9.50;69.28
42411;BME280;28056;51.112;0.984;2023-03-16T10:54:27;99968.05;;;9.48;69.59
42411;BME280;28056;51.112;0.984;2023-03-16T10:56:57;99955.84;;;10.11;68.58
42411;BME280;28056;51.112;0.984;2023-03-16T10:59:28;99950.39;;;9.92;68.67
42411;BME280;28056;51.112;0.984;2023-03-16T11:01:55;99952.28;;;9.81;67.37
42411;BME280;28056;51.112;0.984;2023-03-16T11:04:23;99953.80;;;10.09;69.04
42411;BME280;28056;51.112;0.984;2023-03-16T11:06:53;99967.07;;;11.46;66.87
42411;BME280;28056;51.112;0.984;2023-03-16T11:09:23;99962.53;;;11.29;65.31
42411;BME280;28056;51.112;0.984;2023-03-16T11:11:51;99970.85;;;11.85;63.04
42411;BME280;28056;51.112;0.984;2023-03-16T11:14:21;99963.52;;;10.90;65.62
42411;BME280;28056;51.112;0.984;2023-03-16T11:16:57;99960.39;;;9.98;66.19
42411;BME280;28056;51.112;0.984;2023-03-16T11:19:28;99959.39;;;10.78;64.61
42411;BME280;28056;51.112;0.984;2023-03-16T11:21:59;99950.44;;;10.62;64.51
42411;BME280;28056;51.112;0.984;2023-03-16T11:24:36;99949.87;;;11.02;64.42
42411;BME280;28056;51.112;0.984;2023-03-16T11:27:14;99941.60;;;10.80;64.64
42411;BME280;28056;51.112;0.984;2023-03-16T11:29:52;99937.73;;;11.48;64.76
42411;BME280;28056;51.112;0.984;2023-03-16T11:32:25;99941.35;;;12.31;62.05
42411;BME280;28056;51.112;0.984;2023-03-16T11:34:56;99931.13;;;12.25;61.14
42411;BME280;28056;51.112;0.984;2023-03-16T11:37:34;99920.35;;;11.25;62.03
42411;BME280;28056;51.112;0.984;2023-03-16T11:40:17;99918.73;;;11.79;60.08
42411;BME280;28056;51.112;0.984;2023-03-16T11:42:54;99918.04;;;11.08;63.81
42411;BME280;28056;51.112;0.984;2023-03-16T11:45:29;99919.21;;;11.00;63.32
42411;BME280;28056;51.112;0.984;2023-03-16T11:48:09;99921.91;;;10.36;62.40
42411;BME280;28056;51.112;0.984;2023-03-16T11:50:52;99918.95;;;10.20;64.25
42411;BME280;28056;51.112;0.984;2023-03-16T11:53:36;99913.63;;;10.21;65.22
42411;BME280;28056;51.112;0.984;2023-03-16T11:56:14;99912.23;;;10.70;64.81
42411;BME280;28056;51.112;0.984;2023-03-16T11:58:54;99907.03;;;10.98;63.70
42411;BME280;28056;51.112;0.984;2023-03-16T12:01:26;99909.72;;;11.72;61.35
42411;BME280;28056;51.112;0.984;2023-03-16T12:04:11;99914.20;;;11.29;62.13
42411;BME280;28056;51.112;0.984;2023-03-16T12:06:54;99912.54;;;10.98;61.54
42411;BME280;28056;51.112;0.984;2023-03-16T12:09:45;99906.53;;;11.41;60.74
42411;BME280;28056;51.112;0.984;2023-03-16T12:12:25;99899.83;;;11.21;62.84
42411;BME280;28056;51.112;0.984;2023-03-16T12:15:06;99898.17;;;11.70;61.24
42411;BME280;28056;51.112;0.984;2023-03-16T12:17:36;99896.61;;;11.88;59.87
42411;BME280;28056;51.112;0.984;2023-03-16T12:20:12;99895.04;;;11.67;60.27
42411;BME280;28056;51.112;0.984;2023-03-16T12:22:44;99890.66;;;11.97;59.44
42411;BME280;28056;51.112;0.984;2023-03-16T12:25:17;99894.82;;;12.73;58.94
42411;BME280;28056;51.112;0.984;2023-03-16T12:27:46;99888.89;;;12.22;57.83
42411;BME280;28056;51.112;0.984;2023-03-16T12:30:26;99890.62;;;11.76;60.48
42411;BME280;28056;51.112;0.984;2023-03-16T12:33:02;99886.74;;;11.54;60.38
42411;BME280;28056;51.112;0.984;2023-03-16T12:35:38;99890.14;;;11.39;59.25
42411;BME280;28056;51.112;0.984;2023-03-16T12:38:27;99885.65;;;11.84;59.61
42411;BME280;28056;51.112;0.984;2023-03-16T12:41:06;99891.53;;;11.24;60.86
42411;BME280;28056;51.112;0.984;2023-03-16T12:43:44;99894.36;;;10.48;62.09
42411;BME280;28056;51.112;0.984;2023-03-16T12:46:22;99888.18;;;10.79;61.20
42411;BME280;28056;51.112;0.984;2023-03-16T12:48:57;99899.95;;;10.35;62.63
42411;BME280;28056;51.112;0.984;2023-03-16T12:51:32;99888.35;;;11.20;61.68
42411;BME280;28056;51.112;0.984;2023-03-16T12:54:02;99877.05;;;11.08;61.77
42411;BME280;28056;51.112;0.984;2023-03-16T12:56:31;99877.83;;;10.83;62.64
42411;BME280;28056;51.112;0.984;2023-03-16T12:59:01;99870.00;;;10.91;62.91
42411;BME280;28056;51.112;0.984;2023-03-16T13:01:35;99867.41;;;11.13;61.28
42411;BME280;28056;51.112;0.984;2023-03-16T13:04:09;99862.43;;;10.65;61.32
42411;BME280;28056;51.112;0.984;2023-03-16T13:06:42;99860.24;;;10.95;61.42
42411;BME280;28056;51.112;0.984;2023-03-16T13:09:11;99849.16;;;11.30;60.50
42411;BME280;28056;51.112;0.984;2023-03-16T13:11:41;99843.05;;;11.03;60.87
42411;BME280;28056;51.112;0.984;2023-03-16T13:14:12;99838.65;;;11.21;60.49